sensor_id;sensor_type;location;lat;lon;timestamp;pressure;altitude;pressure_sealevel;temperature;humidity
37792;BME280;29527;55.766;37.570;2023-02-08T00:01:15;102394.03;;;-4.04;55.36
37792;BME280;29527;55.766;37.570;2023-02-08T00:03:40;102395.72;;;-4.06;55.25
37792;BME280;29527;55.766;37.570;2023-02-08T00:06:07;102408.66;;;-4.14;55.64
37792;BME280;29527;55.766;37.570;2023-02-08T00:08:34;102386.56;;;-4.27;55.16
37792;BME280;29527;55.766;37.570;2023-02-08T00:10:59;102400.63;;;-4.22;55.25
37792;BME280;29527;55.766;37.570;2023-02-08T00:13:25;102395.38;;;-4.22;55.47
37792;BME280;29527;55.766;37.570;2023-02-08T00:15:52;102400.66;;;-4.20;55.46
37792;BME280;29527;55.766;37.570;2023-02-08T00:18:18;102396.38;;;-4.16;56.09
37792;BME280;29527;55.766;37.570;2023-02-08T00:20:44;102381.59;;;-4.14;55.10
37792;BME280;29527;55.766;37.570;2023-02-08T00:23:11;102391.25;;;-4.10;55.39
37792;BME280;29527;55.766;37.570;2023-02-08T00:25:37;102378.06;;;-4.16;55.85
37792;BME280;29527;55.766;37.570;2023-02-08T00:28:03;102379.81;;;-4.15;55.36
37792;BME280;29527;55.766;37.570;2023-02-08T00:30:29;102376.28;;;-4.19;55.68
37792;BME280;29527;55.766;37.570;2023-02-08T00:32:54;102379.75;;;-4.19;55.57
37792;BME280;29527;55.766;37.570;2023-02-08T00:35:19;102375.38;;;-4.20;55.34
37792;BME280;29527;55.766;37.570;2023-02-08T00:37:45;102378.94;;;-4.16;55.50
37792;BME280;29527;55.766;37.570;2023-02-08T00:40:11;102365.00;;;-4.15;55.96
37792;BME280;29527;55.766;37.570;2023-02-08T00:42:36;102375.53;;;-4.12;55.79
37792;BME280;29527;55.766;37.570;2023-02-08T00:45:01;102367.63;;;-4.15;55.58
37792;BME280;29527;55.766;37.570;2023-02-08T00:47:30;102380.91;;;-4.06;55.53
37792;BME280;29527;55.766;37.570;2023-02-08T00:49:55;102379.97;;;-4.09;55.49
37792;BME280;29527;55.766;37.570;2023-02-08T00:52:21;102377.03;;;-4.23;55.51
37792;BME280;29527;55.766;37.570;2023-02-08T00:54:46;102360.97;;;-4.40;55.71
37792;BME280;29527;55.766;37.570;2023-02-08T00:57:12;102375.97;;;-4.33;55.76
37792;BME280;29527;55.766;37.570;2023-02-08T00:59:38;102379.56;;;-4.28;56.05
37792;BME280;29527;55.766;37.570;2023-02-08T01:02:04;102376.16;;;-4.24;55.39
37792;BME280;29527;55.766;37.570;2023-02-08T01:04:30;102385.78;;;-4.23;55.58
37792;BME280;29527;55.766;37.570;2023-02-08T01:06:55;102382.38;;;-4.19;55.17
37792;BME280;29527;55.766;37.570;2023-02-08T01:09:21;102333.09;;;-4.38;55.45
37792;BME280;29527;55.766;37.570;2023-02-08T01:11:46;102364.66;;;-4.30;55.31
37792;BME280;29527;55.766;37.570;2023-02-08T01:14:12;102340.75;;;-4.48;56.04
37792;BME280;29527;55.766;37.570;2023-02-08T01:16:37;102372.56;;;-4.29;56.12
37792;BME280;29527;55.766;37.570;2023-02-08T01:19:04;102369.16;;;-4.25;55.55
37792;BME280;29527;55.766;37.570;2023-02-08T01:21:35;102377.13;;;-4.20;56.13
37792;BME280;29527;55.766;37.570;2023-02-08T01:24:01;102365.69;;;-4.24;55.12
37792;BME280;29527;55.766;37.570;2023-02-08T01:26:27;102373.72;;;-4.14;55.31
37792;BME280;29527;55.766;37.570;2023-02-08T01:28:54;102365.03;;;-4.13;55.20
37792;BME280;29527;55.766;37.570;2023-02-08T01:31:27;102370.31;;;-4.10;55.12
37792;BME280;29527;55.766;37.570;2023-02-08T01:33:54;102367.75;;;-4.09;55.26
37792;BME280;29527;55.766;37.570;2023-02-08T01:36:20;102364.22;;;-4.11;54.96
37792;BME280;29527;55.766;37.570;2023-02-08T01:38:46;102371.94;;;-4.17;55.42
37792;BME280;29527;55.766;37.570;2023-02-08T01:41:20;102379.75;;;-4.20;55.54
37792;BME280;29527;55.766;37.570;2023-02-08T01:46:32;102375.13;;;-4.30;55.19
37792;BME280;29527;55.766;37.570;2023-02-08T01:49:03;102340.72;;;-4.49;55.80
37792;BME280;29527;55.766;37.570;2023-02-08T01:51:34;102377.72;;;-4.32;55.35
37792;BME280;29527;55.766;37.570;2023-02-08T01:54:03;102376.09;;;-4.27;55.17
37792;BME280;29527;55.766;37.570;2023-02-08T01:56:32;102376.94;;;-4.28;55.55
37792;BME280;29527;55.766;37.570;2023-02-08T01:59:00;102367.41;;;-4.26;55.51
37792;BME280;29527;55.766;37.570;2023-02-08T02:01:28;102374.50;;;-4.20;55.48
37792;BME280;29527;55.766;37.570;2023-02-08T02:03:56;102363.88;;;-4.26;55.38
37792;BME280;29527;55.766;37.570;2023-02-08T02:06:27;102379.75;;;-4.19;55.16
37792;BME280;29527;55.766;37.570;2023-02-08T02:09:04;102361.44;;;-4.20;54.66
37792;BME280;29527;55.766;37.570;2023-02-08T02:11:31;102355.09;;;-4.30;55.18
37792;BME280;29527;55.766;37.570;2023-02-08T02:13:57;102367.41;;;-4.26;55.02
37792;BME280;29527;55.766;37.570;2023-02-08T02:16:44;102362.22;;;-4.23;54.91
37792;BME280;29527;55.766;37.570;2023-02-08T02:19:25;102364.78;;;-4.24;54.58
37792;BME280;29527;55.766;37.570;2023-02-08T02:22:16;102359.56;;;-4.26;54.98
37792;BME280;29527;55.766;37.570;2023-02-08T02:27:24;102354.28;;;-4.27;54.55
37792;BME280;29527;55.766;37.570;2023-02-08T02:30:15;102362.97;;;-4.28;54.77
37792;BME280;29527;55.766;37.570;2023-02-08T02:35:48;102362.97;;;-4.30;54.50
37792;BME280;29527;55.766;37.570;2023-02-08T02:43:50;102364.16;;;-4.54;55.52
37792;BME280;29527;55.766;37.570;2023-02-08T02:46:39;102372.88;;;-4.53;55.58
37792;BME280;29527;55.766;37.570;2023-02-08T02:49:13;102380.72;;;-4.55;55.11
37792;BME280;29527;55.766;37.570;2023-02-08T02:51:47;102364.22;;;-4.51;55.16
37792;BME280;29527;55.766;37.570;2023-02-08T02:54:15;102362.53;;;-4.49;55.31
37792;BME280;29527;55.766;37.570;2023-02-08T02:56:44;102357.31;;;-4.49;55.60
37792;BME280;29527;55.766;37.570;2023-02-08T02:59:12;102365.22;;;-4.45;55.16
37792;BME280;29527;55.766;37.570;2023-02-08T03:01:39;102355.59;;;-4.47;55.61
37792;BME280;29527;55.766;37.570;2023-02-08T03:13:00;102355.19;;;-4.25;55.70
37792;BME280;29527;55.766;37.570;2023-02-08T03:15:38;102353.53;;;-4.22;55.04
37792;BME280;29527;55.766;37.570;2023-02-08T03:18:30;102350.97;;;-4.19;55.21
37792;BME280;29527;55.766;37.570;2023-02-08T03:23:43;102351.09;;;-4.12;55.18
37792;BME280;29527;55.766;37.570;2023-02-08T03:29:36;102339.03;;;-4.06;55.44
37792;BME280;29527;55.766;37.570;2023-02-08T03:32:00;102331.19;;;-4.06;54.85
37792;BME280;29527;55.766;37.570;2023-02-08T03:34:45;102335.63;;;-4.01;55.10
37792;BME280;29527;55.766;37.570;2023-02-08T03:37:19;102315.47;;;-4.07;55.36
37792;BME280;29527;55.766;37.570;2023-02-08T03:39:48;102315.38;;;-4.10;55.21
37792;BME280;29527;55.766;37.570;2023-02-08T03:42:18;102305.84;;;-4.08;55.65
37792;BME280;29527;55.766;37.570;2023-02-08T03:44:55;102298.88;;;-4.08;55.71
37792;BME280;29527;55.766;37.570;2023-02-08T03:47:23;102313.44;;;-3.76;55.38
37792;BME280;29527;55.766;37.570;2023-02-08T03:49:52;102321.03;;;-3.89;54.80
37792;BME280;29527;55.766;37.570;2023-02-08T03:52:20;102297.16;;;-4.06;55.22
37792;BME280;29527;55.766;37.570;2023-02-08T03:55:03;102285.78;;;-4.09;55.22
37792;BME280;29527;55.766;37.570;2023-02-08T03:57:57;102315.00;;;-3.86;55.26
37792;BME280;29527;55.766;37.570;2023-02-08T04:00:22;102305.44;;;-3.85;55.48
37792;BME280;29527;55.766;37.570;2023-02-08T04:02:54;102272.84;;;-4.00;55.30
37792;BME280;29527;55.766;37.570;2023-02-08T04:05:21;102302.88;;;-3.81;55.68
37792;BME280;29527;55.766;37.570;2023-02-08T04:07:47;102302.00;;;-3.81;55.68
37792;BME280;29527;55.766;37.570;2023-02-08T04:10:13;102299.41;;;-3.80;55.98
37792;BME280;29527;55.766;37.570;2023-02-08T04:12:38;102295.97;;;-3.77;55.39
37792;BME280;29527;55.766;37.570;2023-02-08T04:15:04;102290.84;;;-3.71;55.28
37792;BME280;29527;55.766;37.570;2023-02-08T04:17:30;102297.84;;;-3.71;55.49
37792;BME280;29527;55.766;37.570;2023-02-08T04:19:57;102300.50;;;-3.67;56.00
37792;BME280;29527;55.766;37.570;2023-02-08T04:22:22;102289.19;;;-3.66;55.32
37792;BME280;29527;55.766;37.570;2023-02-08T04:24:48;102291.94;;;-3.59;56.25
37792;BME280;29527;55.766;37.570;2023-02-08T04:27:13;102281.38;;;-3.63;56.18
37792;BME280;29527;55.766;37.570;2023-02-08T04:29:39;102282.31;;;-3.59;56.07
37792;BME280;29527;55.766;37.570;2023-02-08T04:32:06;102285.91;;;-3.55;55.88
37792;BME280;29527;55.766;37.570;2023-02-08T04:34:36;102289.41;;;-3.53;55.78
37792;BME280;29527;55.766;37.570;2023-02-08T04:37:03;102279.84;;;-3.51;55.75
37792;BME280;29527;55.766;37.570;2023-02-08T04:39:28;102287.72;;;-3.51;56.17
37792;BME280;29527;55.766;37.570;2023-02-08T04:41:53;102283.34;;;-3.51;55.90
37792;BME280;29527;55.766;37.570;2023-02-08T04:44:19;102275.56;;;-3.48;56.31
37792;BME280;29527;55.766;37.570;2023-02-08T04:46:45;102279.09;;;-3.44;56.32
37792;BME280;29527;55.766;37.570;2023-02-08T04:49:10;102283.53;;;-3.40;56.63
37792;BME280;29527;55.766;37.570;2023-02-08T04:51:36;102273.84;;;-3.46;56.58
37792;BME280;29527;55.766;37.570;2023-02-08T04:54:01;102261.59;;;-3.47;56.71
37792;BME280;29527;55.766;37.570;2023-02-08T04:56:27;102269.66;;;-3.36;56.24
37792;BME280;29527;55.766;37.570;2023-02-08T04:58:52;102274.13;;;-3.28;56.60
37792;BME280;29527;55.766;37.570;2023-02-08T05:01:17;102271.56;;;-3.25;56.40
37792;BME280;29527;55.766;37.570;2023-02-08T05:03:43;102283.88;;;-3.18;56.27
37792;BME280;29527;55.766;37.570;2023-02-08T05:06:08;102272.53;;;-3.17;56.22
37792;BME280;29527;55.766;37.570;2023-02-08T05:08:34;102269.06;;;-3.16;56.43
37792;BME280;29527;55.766;37.570;2023-02-08T05:10:59;102251.47;;;-3.25;56.15
37792;BME280;29527;55.766;37.570;2023-02-08T05:13:25;102247.09;;;-3.24;56.28
37792;BME280;29527;55.766;37.570;2023-02-08T05:15:50;102261.31;;;-3.08;56.25
37792;BME280;29527;55.766;37.570;2023-02-08T05:18:16;102271.06;;;-2.99;56.11
37792;BME280;29527;55.766;37.570;2023-02-08T05:20:41;102261.41;;;-3.02;56.04
37792;BME280;29527;55.766;37.570;2023-02-08T05:23:06;102260.59;;;-3.01;55.99
37792;BME280;29527;55.766;37.570;2023-02-08T05:25:32;102255.38;;;-2.96;55.95
37792;BME280;29527;55.766;37.570;2023-02-08T05:27:58;102260.47;;;-3.09;56.15
37792;BME280;29527;55.766;37.570;2023-02-08T05:30:24;102265.63;;;-3.13;56.43
37792;BME280;29527;55.766;37.570;2023-02-08T05:32:49;102265.75;;;-3.04;55.34
37792;BME280;29527;55.766;37.570;2023-02-08T05:35:15;102254.13;;;-3.23;56.33
37792;BME280;29527;55.766;37.570;2023-02-08T05:37:40;102266.41;;;-3.19;56.34
37792;BME280;29527;55.766;37.570;2023-02-08T05:40:06;102266.44;;;-3.16;56.46
37792;BME280;29527;55.766;37.570;2023-02-08T05:42:32;102225.06;;;-3.37;56.01
37792;BME280;29527;55.766;37.570;2023-02-08T05:44:57;102261.19;;;-3.16;56.28
37792;BME280;29527;55.766;37.570;2023-02-08T05:47:23;102253.41;;;-3.11;56.42
37792;BME280;29527;55.766;37.570;2023-02-08T05:49:48;102259.59;;;-3.08;56.60
37792;BME280;29527;55.766;37.570;2023-02-08T05:52:14;102251.69;;;-3.11;55.96
37792;BME280;29527;55.766;37.570;2023-02-08T05:54:39;102226.19;;;-3.23;56.18
37792;BME280;29527;55.766;37.570;2023-02-08T05:57:05;102251.63;;;-3.14;56.65
37792;BME280;29527;55.766;37.570;2023-02-08T05:59:30;102261.50;;;-2.97;55.53
37792;BME280;29527;55.766;37.570;2023-02-08T06:01:56;102248.38;;;-2.99;55.87
37792;BME280;29527;55.766;37.570;2023-02-08T06:04:21;102246.63;;;-2.98;56.24
37792;BME280;29527;55.766;37.570;2023-02-08T06:06:47;102252.81;;;-2.93;55.71
37792;BME280;29527;55.766;37.570;2023-02-08T06:09:12;102244.94;;;-2.93;55.33
37792;BME280;29527;55.766;37.570;2023-02-08T06:11:37;102244.94;;;-2.95;55.86
37792;BME280;29527;55.766;37.570;2023-02-08T06:14:03;102251.97;;;-2.91;55.62
37792;BME280;29527;55.766;37.570;2023-02-08T06:16:29;102224.72;;;-3.04;55.46
37792;BME280;29527;55.766;37.570;2023-02-08T06:18:54;102251.19;;;-2.83;55.36
37792;BME280;29527;55.766;37.570;2023-02-08T06:21:20;102253.16;;;-2.70;54.99
37792;BME280;29527;55.766;37.570;2023-02-08T06:23:45;102224.09;;;-2.87;55.24
37792;BME280;29527;55.766;37.570;2023-02-08T06:26:11;102246.09;;;-2.74;54.76
37792;BME280;29527;55.766;37.570;2023-02-08T06:28:36;102248.69;;;-2.77;55.18
37792;BME280;29527;55.766;37.570;2023-02-08T06:31:02;102255.75;;;-2.71;55.08
37792;BME280;29527;55.766;37.570;2023-02-08T06:33:27;102254.91;;;-2.67;55.32
37792;BME280;29527;55.766;37.570;2023-02-08T06:35:53;102242.66;;;-2.68;54.96
37792;BME280;29527;55.766;37.570;2023-02-08T06:38:18;102242.66;;;-2.68;54.47
37792;BME280;29527;55.766;37.570;2023-02-08T06:40:48;102235.69;;;-2.66;55.42
37792;BME280;29527;55.766;37.570;2023-02-08T06:43:14;102236.66;;;-2.60;54.72
37792;BME280;29527;55.766;37.570;2023-02-08T06:45:40;102233.22;;;-2.55;54.76
37792;BME280;29527;55.766;37.570;2023-02-08T06:48:07;102238.59;;;-2.46;54.66
37792;BME280;29527;55.766;37.570;2023-02-08T06:50:32;102231.72;;;-2.36;54.38
37792;BME280;29527;55.766;37.570;2023-02-08T06:52:57;102222.16;;;-2.31;54.42
37792;BME280;29527;55.766;37.570;2023-02-08T06:55:23;102216.97;;;-2.25;54.12
37792;BME280;29527;55.766;37.570;2023-02-08T06:57:52;102223.97;;;-2.25;54.29
37792;BME280;29527;55.766;37.570;2023-02-08T07:00:18;102196.69;;;-2.40;53.78
37792;BME280;29527;55.766;37.570;2023-02-08T07:02:44;102212.63;;;-2.24;54.00
37792;BME280;29527;55.766;37.570;2023-02-08T07:05:12;102213.50;;;-2.21;53.98
37792;BME280;29527;55.766;37.570;2023-02-08T07:07:37;102150.22;;;-2.49;53.90
37792;BME280;29527;55.766;37.570;2023-02-08T07:10:03;102211.91;;;-2.08;53.61
37792;BME280;29527;55.766;37.570;2023-02-08T07:12:32;102184.75;;;-2.10;53.30
37792;BME280;29527;55.766;37.570;2023-02-08T07:14:58;102216.41;;;-1.97;53.64
37792;BME280;29527;55.766;37.570;2023-02-08T07:17:23;102208.53;;;-1.94;53.65
37792;BME280;29527;55.766;37.570;2023-02-08T07:19:49;102208.59;;;-1.90;53.38
37792;BME280;29527;55.766;37.570;2023-02-08T07:22:15;102213.88;;;-1.86;53.50
37792;BME280;29527;55.766;37.570;2023-02-08T07:24:40;102200.75;;;-1.86;53.46
37792;BME280;29527;55.766;37.570;2023-02-08T07:27:09;102211.44;;;-1.66;53.54
37792;BME280;29527;55.766;37.570;2023-02-08T07:29:35;102214.97;;;-1.63;53.26
37792;BME280;29527;55.766;37.570;2023-02-08T07:32:02;102214.97;;;-1.63;52.80
37792;BME280;29527;55.766;37.570;2023-02-08T07:34:29;102208.88;;;-1.59;52.91
37792;BME280;29527;55.766;37.570;2023-02-08T07:36:55;102206.28;;;-1.54;53.37
37792;BME280;29527;55.766;37.570;2023-02-08T07:39:21;102210.72;;;-1.47;52.53
37792;BME280;29527;55.766;37.570;2023-02-08T07:41:47;102197.53;;;-1.53;52.63
37792;BME280;29527;55.766;37.570;2023-02-08T07:44:12;102202.78;;;-1.54;52.82
37792;BME280;29527;55.766;37.570;2023-02-08T07:46:39;102214.16;;;-1.55;52.66
37792;BME280;29527;55.766;37.570;2023-02-08T07:49:05;102206.28;;;-1.54;52.96
37792;BME280;29527;55.766;37.570;2023-02-08T07:51:31;102194.88;;;-1.54;52.96
37792;BME280;29527;55.766;37.570;2023-02-08T07:53:56;102208.06;;;-1.53;53.38
37792;BME280;29527;55.766;37.570;2023-02-08T07:56:22;102201.91;;;-1.50;53.25
37792;BME280;29527;55.766;37.570;2023-02-08T07:58:47;102194.94;;;-1.48;52.98
37792;BME280;29527;55.766;37.570;2023-02-08T08:01:13;102198.53;;;-1.37;52.85
37792;BME280;29527;55.766;37.570;2023-02-08T08:03:38;102189.78;;;-1.33;52.55
37792;BME280;29527;55.766;37.570;2023-02-08T08:06:04;102193.31;;;-1.32;53.03
37792;BME280;29527;55.766;37.570;2023-02-08T08:08:29;102190.69;;;-1.32;52.30
37792;BME280;29527;55.766;37.570;2023-02-08T08:10:55;102186.34;;;-1.24;52.75
37792;BME280;29527;55.766;37.570;2023-02-08T08:13:22;102187.25;;;-1.22;52.04
37792;BME280;29527;55.766;37.570;2023-02-08T08:15:47;102167.00;;;-1.37;52.58
37792;BME280;29527;55.766;37.570;2023-02-08T08:18:13;102184.56;;;-1.30;52.58
37792;BME280;29527;55.766;37.570;2023-02-08T08:20:38;102173.13;;;-1.35;53.00
37792;BME280;29527;55.766;37.570;2023-02-08T08:23:04;102168.75;;;-1.39;53.18
37792;BME280;29527;55.766;37.570;2023-02-08T08:25:29;102178.41;;;-1.32;53.21
37792;BME280;29527;55.766;37.570;2023-02-08T08:27:55;102174.97;;;-1.26;53.07
37792;BME280;29527;55.766;37.570;2023-02-08T08:30:21;102163.63;;;-1.17;52.75
37792;BME280;29527;55.766;37.570;2023-02-08T08:32:47;102161.91;;;-1.09;52.57
37792;BME280;29527;55.766;37.570;2023-02-08T08:35:12;102164.53;;;-1.09;52.64
37792;BME280;29527;55.766;37.570;2023-02-08T08:37:38;102165.41;;;-1.13;52.74
37792;BME280;29527;55.766;37.570;2023-02-08T08:40:04;102162.75;;;-1.16;52.64
37792;BME280;29527;55.766;37.570;2023-02-08T08:42:32;102162.72;;;-1.21;52.63
37792;BME280;29527;55.766;37.570;2023-02-08T08:44:58;102153.91;;;-1.24;53.02
37792;BME280;29527;55.766;37.570;2023-02-08T08:47:23;102158.34;;;-1.20;52.91
37792;BME280;29527;55.766;37.570;2023-02-08T08:49:48;102154.00;;;-1.15;52.71
37792;BME280;29527;55.766;37.570;2023-02-08T08:52:14;102150.50;;;-1.08;52.56
37792;BME280;29527;55.766;37.570;2023-02-08T08:54:40;102138.28;;;-0.99;52.79
37792;BME280;29527;55.766;37.570;2023-02-08T08:57:05;102140.13;;;-0.80;52.06
37792;BME280;29527;55.766;37.570;2023-02-08T08:59:31;102139.28;;;-0.68;52.48
37792;BME280;29527;55.766;37.570;2023-02-08T09:01:57;102136.75;;;-0.41;51.63
37792;BME280;29527;55.766;37.570;2023-02-08T09:04:23;102132.38;;;-0.13;51.11
37792;BME280;29527;55.766;37.570;2023-02-08T09:06:49;102128.03;;;0.09;50.79
37792;BME280;29527;55.766;37.570;2023-02-08T09:09:15;102099.06;;;0.12;50.32
37792;BME280;29527;55.766;37.570;2023-02-08T09:11:41;102107.81;;;0.33;49.87
37792;BME280;29527;55.766;37.570;2023-02-08T09:14:07;102102.53;;;0.39;49.84
37792;BME280;29527;55.766;37.570;2023-02-08T09:16:33;102109.56;;;0.43;49.26
37792;BME280;29527;55.766;37.570;2023-02-08T09:19:04;102111.34;;;0.43;49.51
37792;BME280;29527;55.766;37.570;2023-02-08T09:21:30;102110.47;;;0.36;49.54
37792;BME280;29527;55.766;37.570;2023-02-08T09:23:55;102109.56;;;0.37;49.58
37792;BME280;29527;55.766;37.570;2023-02-08T09:26:21;102112.22;;;0.37;49.74
37792;BME280;29527;55.766;37.570;2023-02-08T09:28:46;102092.91;;;0.32;50.06
37792;BME280;29527;55.766;37.570;2023-02-08T09:31:18;102106.06;;;0.35;50.38
37792;BME280;29527;55.766;37.570;2023-02-08T09:33:44;102119.22;;;0.23;50.38
37792;BME280;29527;55.766;37.570;2023-02-08T09:36:10;102092.03;;;0.05;50.63
37792;BME280;29527;55.766;37.570;2023-02-08T09:38:38;102109.59;;;-0.09;50.58
37792;BME280;29527;55.766;37.570;2023-02-08T09:43:52;102106.94;;;-0.31;51.72
37792;BME280;29527;55.766;37.570;2023-02-08T09:46:23;102095.53;;;-0.36;52.08
37792;BME280;29527;55.766;37.570;2023-02-08T09:48:52;102110.44;;;-0.38;51.41
37792;BME280;29527;55.766;37.570;2023-02-08T09:51:32;102106.03;;;-0.42;51.90
37792;BME280;29527;55.766;37.570;2023-02-08T09:54:13;102106.03;;;-0.46;52.27
37792;BME280;29527;55.766;37.570;2023-02-08T09:56:42;102070.88;;;-0.71;52.10
37792;BME280;29527;55.766;37.570;2023-02-08T09:59:23;102099.00;;;-0.51;52.19
37792;BME280;29527;55.766;37.570;2023-02-08T10:01:57;102090.25;;;-0.39;51.69
37792;BME280;29527;55.766;37.570;2023-02-08T10:04:56;102078.00;;;-0.16;52.07
37792;BME280;29527;55.766;37.570;2023-02-08T10:07:27;102084.13;;;0.18;50.94
37792;BME280;29527;55.766;37.570;2023-02-08T10:09:56;102065.59;;;0.66;50.13
37792;BME280;29527;55.766;37.570;2023-02-08T10:35:48;102023.50;;;2.73;45.47
37792;BME280;29527;55.766;37.570;2023-02-08T10:37:49;102021.28;;;3.08;44.60
37792;BME280;29527;55.766;37.570;2023-02-08T10:40:38;102025.22;;;3.40;43.77
37792;BME280;29527;55.766;37.570;2023-02-08T10:45:43;102026.91;;;3.46;43.90
37792;BME280;29527;55.766;37.570;2023-02-08T10:51:11;102021.63;;;2.83;44.65
37792;BME280;29527;55.766;37.570;2023-02-08T10:53:38;102016.72;;;2.49;45.41
37792;BME280;29527;55.766;37.570;2023-02-08T10:56:04;102014.41;;;2.17;46.10
37792;BME280;29527;55.766;37.570;2023-02-08T10:58:31;102023.44;;;1.97;46.34
37792;BME280;29527;55.766;37.570;2023-02-08T11:00:57;102035.03;;;1.80;46.67
37792;BME280;29527;55.766;37.570;2023-02-08T11:03:25;102024.53;;;1.71;47.00
37792;BME280;29527;55.766;37.570;2023-02-08T11:05:51;102021.94;;;1.66;47.12
37792;BME280;29527;55.766;37.570;2023-02-08T11:08:21;102034.19;;;1.75;46.45
37792;BME280;29527;55.766;37.570;2023-02-08T11:13:25;102037.53;;;1.96;46.32
37792;BME280;29527;55.766;37.570;2023-02-08T11:16:00;101999.69;;;1.91;46.16
37792;BME280;29527;55.766;37.570;2023-02-08T11:21:02;102030.13;;;2.34;45.39
37792;BME280;29527;55.766;37.570;2023-02-08T11:23:30;102030.06;;;2.41;45.49
37792;BME280;29527;55.766;37.570;2023-02-08T11:28:42;102021.84;;;2.63;44.34
37792;BME280;29527;55.766;37.570;2023-02-08T11:31:19;101985.00;;;2.49;44.92
37792;BME280;29527;55.766;37.570;2023-02-08T11:36:22;102016.56;;;2.63;45.03
37792;BME280;29527;55.766;37.570;2023-02-08T11:38:48;102010.41;;;2.61;44.72
37792;BME280;29527;55.766;37.570;2023-02-08T11:41:16;102000.81;;;2.55;44.92
37792;BME280;29527;55.766;37.570;2023-02-08T11:43:54;102006.09;;;2.54;45.03
37792;BME280;29527;55.766;37.570;2023-02-08T11:46:24;102000.31;;;2.19;45.70
37792;BME280;29527;55.766;37.570;2023-02-08T11:48:52;101970.75;;;1.83;46.03
37792;BME280;29527;55.766;37.570;2023-02-08T11:51:27;101999.66;;;1.95;46.82
37792;BME280;29527;55.766;37.570;2023-02-08T11:53:55;101988.34;;;1.82;46.71
37792;BME280;29527;55.766;37.570;2023-02-08T11:56:26;101991.91;;;1.78;47.17
37792;BME280;29527;55.766;37.570;2023-02-08T12:01:36;101970.03;;;1.61;47.37
37792;BME280;29527;55.766;37.570;2023-02-08T12:04:05;101977.16;;;1.52;47.77
37792;BME280;29527;55.766;37.570;2023-02-08T12:07:01;101975.41;;;1.51;47.56
37792;BME280;29527;55.766;37.570;2023-02-08T12:15:14;101970.41;;;1.11;48.32
37792;BME280;29527;55.766;37.570;2023-02-08T12:20:44;101959.94;;;0.95;48.56
37792;BME280;29527;55.766;37.570;2023-02-08T12:23:42;101959.94;;;1.02;49.21
37792;BME280;29527;55.766;37.570;2023-02-08T12:26:30;101949.28;;;1.14;48.89
37792;BME280;29527;55.766;37.570;2023-02-08T12:29:38;101953.69;;;1.17;48.60
37792;BME280;29527;55.766;37.570;2023-02-08T12:35:00;101943.28;;;0.90;48.66
37792;BME280;29527;55.766;37.570;2023-02-08T12:52:29;101931.84;;;0.91;48.60
37792;BME280;29527;55.766;37.570;2023-02-08T12:54:31;101925.78;;;0.77;48.74
37792;BME280;29527;55.766;37.570;2023-02-08T12:56:58;101930.28;;;0.61;49.54
37792;BME280;29527;55.766;37.570;2023-02-08T12:59:36;101918.03;;;0.52;49.81
37792;BME280;29527;55.766;37.570;2023-02-08T13:02:33;101910.94;;;0.59;50.11
37792;BME280;29527;55.766;37.570;2023-02-08T13:05:03;101905.72;;;0.51;49.78
37792;BME280;29527;55.766;37.570;2023-02-08T13:07:41;101870.59;;;0.47;49.87
37792;BME280;29527;55.766;37.570;2023-02-08T13:10:28;101897.72;;;0.68;49.82
37792;BME280;29527;55.766;37.570;2023-02-08T13:13:00;101893.38;;;0.57;49.67
37792;BME280;29527;55.766;37.570;2023-02-08T13:15:52;101905.59;;;0.69;50.09
37792;BME280;29527;55.766;37.570;2023-02-08T13:18:29;101872.38;;;0.42;49.78
37792;BME280;29527;55.766;37.570;2023-02-08T13:21:07;101910.13;;;0.46;50.68
37792;BME280;29527;55.766;37.570;2023-02-08T13:23:43;101911.91;;;0.40;50.62
37792;BME280;29527;55.766;37.570;2023-02-08T13:26:26;101905.78;;;0.35;50.45
37792;BME280;29527;55.766;37.570;2023-02-08T13:28:57;101899.69;;;0.27;50.36
37792;BME280;29527;55.766;37.570;2023-02-08T13:31:32;101899.69;;;0.25;50.94
37792;BME280;29527;55.766;37.570;2023-02-08T13:34:06;101890.03;;;0.23;50.93
37792;BME280;29527;55.766;37.570;2023-02-08T13:36:40;101887.38;;;0.23;51.05
37792;BME280;29527;55.766;37.570;2023-02-08T13:39:29;101884.75;;;0.26;51.52
37792;BME280;29527;55.766;37.570;2023-02-08T13:41:56;101869.00;;;0.12;51.39
37792;BME280;29527;55.766;37.570;2023-02-08T13:44:35;101842.72;;;-0.02;51.58
37792;BME280;29527;55.766;37.570;2023-02-08T13:47:02;101873.41;;;0.04;51.67
37792;BME280;29527;55.766;37.570;2023-02-08T14:03:34;101885.81;;;-0.22;52.14
37792;BME280;29527;55.766;37.570;2023-02-08T14:08:46;101878.81;;;-0.38;52.58
37792;BME280;29527;55.766;37.570;2023-02-08T14:13:48;101886.72;;;-0.48;53.01
37792;BME280;29527;55.766;37.570;2023-02-08T14:16:31;101895.47;;;-0.49;53.12
37792;BME280;29527;55.766;37.570;2023-02-08T14:18:59;101886.75;;;-0.59;53.29
37792;BME280;29527;55.766;37.570;2023-02-08T14:21:35;101873.56;;;-0.62;53.47
37792;BME280;29527;55.766;37.570;2023-02-08T14:24:05;101888.47;;;-0.59;53.80
37792;BME280;29527;55.766;37.570;2023-02-08T14:26:32;101882.34;;;-0.72;54.09
37792;BME280;29527;55.766;37.570;2023-02-08T14:29:02;101882.38;;;-0.67;53.68
37792;BME280;29527;55.766;37.570;2023-02-08T14:31:41;101877.97;;;-0.68;54.30
37792;BME280;29527;55.766;37.570;2023-02-08T14:34:39;101882.34;;;-0.58;53.88
37792;BME280;29527;55.766;37.570;2023-02-08T14:37:32;101881.47;;;-0.57;53.67
37792;BME280;29527;55.766;37.570;2023-02-08T14:43:26;101890.25;;;-0.56;53.88
37792;BME280;29527;55.766;37.570;2023-02-08T14:45:51;101892.00;;;-0.63;54.11
37792;BME280;29527;55.766;37.570;2023-02-08T14:50:56;101892.00;;;-0.57;54.05
37792;BME280;29527;55.766;37.570;2023-02-08T14:53:28;101891.13;;;-0.62;53.73
37792;BME280;29527;55.766;37.570;2023-02-08T14:58:44;101862.19;;;-0.68;54.25
37792;BME280;29527;55.766;37.570;2023-02-08T15:01:19;101877.97;;;-0.68;54.34